PASY METAR and TAF weather

Enter ICAO airport designator
Station Type Date Time Source
PASY METAR 2018/12/12 11:48 UTC NOAA

PASY 121148Z 30019KT 2 1/2SM -SN BR OVC019 M01/M03 A2953 RMK AO2A VIS 2 1/2V3 SNE1058UPB1058E01SNB01 SLP004 FZRANO $


Station Type Date Time Source
PASY Decoded METAR 2018/12/12 11:48 UTC NOAA

SHEMYA EARECKSON AS, AK, United States (PASY) 52-43N 174-07E
Dec 12, 2018 - 06:48 AM EST / 2018.12.12 1148 UTC
Wind: from the WNW (300 degrees) at 22 MPH (19 KT):0
Visibility: 2 1/2 mile(s):0
Sky conditions: overcast
Weather: light snow; mist
Temperature: 30 F (-1 C)
Windchill: 17 F (-8 C):1
Dew Point: 26 F (-3 C)
Relative Humidity: 86%
Pressure (altimeter): 29.53 in. Hg (1000 hPa)
ob: PASY 121148Z 30019KT 2 1/2SM -SN BR OVC019 M01/M03 A2953 RMK AO2A VIS 2 1/2V3 SNE1058UPB1058E01SNB01 SLP004 FZRANO
cycle: 12

Station Type Date Time Source
PASY TAF 2018/12/12 11:18 UTC NOAA

TAF TAF
AMD PASY 121115Z 1211/1312 29025G40KT 4000 -SN BR BKN021 OVC030 610219 530003 QNH2952INS
BECMG 1214/1215 26015G25KT 9999 NSW SCT015 BKN025 610255 QNH2950INS TX03/1306Z TN00/1213Z


Example: see airport list